Weather History for KOXV - November, 2014

Change the Weather History Date:

Tuesday, November 11, 2014

  Actual Average Record
Temperature  
Mean Temperature 28 °F -  
Max Temperature 32 °F 48 °F 74 °F (1964)
Min Temperature 23 °F 30 °F 4 °F (1986)
Degree Days  
Heating Degree Days 38    
Moisture  
Dew Point 18 °F    
Average Humidity 69    
Maximum Humidity 86    
Minimum Humidity 54    
Precipitation  
Precipitation 0.00 in - - ()
Sea Level Pressure  
Sea Level Pressure 30.08 in    
Wind  
Wind Speed 20 mph (NNW)    
Max Wind Speed 30 mph    
Max Gust Speed 36 mph    
Visibility 10 miles    
Events Snow    
Averages and records for this station are not official NWS values.
T = Trace of Precipitation, MM = Missing Value Source: NWS Daily Summary

Daily Weather History Graph

Daily Weather History Graph

Search for Another Location

Airport or City:

Trip Planner

Search our weather history database for the weather conditions in past years. The results will help you decide how hot, cold, wet, or windy it might be!

Date:

Astronomy

Nov. 11, 2014 Rise Set
Actual Time 6:55 AM CST 4:56 PM CST
Civil Twilight 6:26 AM CST 5:25 PM CST
Nautical Twilight 5:53 AM CST 5:59 PM CST
Astronomical Twilight 5:20 AM CST 6:31 PM CST
Moon 9:20 PM CST (11/11) 11:02 AM CST (11/11)
Length of Visible Light 10h 59m
Length of Day
10h 00m
Waning Gibbous, 76% of the Moon is Illuminated
Nov 11
Waning Gibbous
Nov 14
Last Quarter
Nov 22
New
Nov 29
First Quarter
Dec 6
Full

Hourly Weather History & Observations

Time (CST) Temp. Windchill Dew Point Humidity Pressure Visibility Wind Dir Wind Speed Gust Speed Precip Events Conditions
12:15 AM 32.0 °F 21.2 °F 26.6 °F 80% 29.77 in 10.0 mi NNW 16.1 mph 32.2 mph N/A   Overcast
12:35 AM 30.2 °F 17.4 °F 26.6 °F 86% 29.80 in 10.0 mi NNW 20.7 mph 28.8 mph N/A   Overcast
12:55 AM 30.2 °F 16.8 °F 26.6 °F 86% 29.79 in 10.0 mi NNW 23.0 mph - N/A   Overcast
1:15 AM 30.2 °F 15.2 °F 24.8 °F 80% 29.83 in 10.0 mi NW 29.9 mph 35.7 mph N/A   Overcast
1:35 AM 30.2 °F 16.5 °F 24.8 °F 80% 29.83 in - NNW 24.2 mph 35.7 mph N/A   Overcast
1:55 AM 28.4 °F 14.7 °F 23.0 °F 80% 29.84 in 10.0 mi NW 21.9 mph 33.4 mph N/A   Overcast
2:15 AM 28.4 °F 13.5 °F 23.0 °F 80% 29.84 in 10.0 mi NNW 26.5 mph 33.4 mph N/A   Overcast
2:35 AM 28.4 °F 15.8 °F 21.2 °F 74% 29.85 in 10.0 mi NNW 18.4 mph 27.6 mph N/A   Overcast
2:55 AM 28.4 °F 14.7 °F 21.2 °F 74% 29.84 in 10.0 mi NNW 21.9 mph 28.8 mph N/A   Overcast
3:15 AM 28.4 °F 16.2 °F 21.2 °F 74% 29.85 in 10.0 mi NNW 17.3 mph 27.6 mph N/A   Overcast
3:35 AM 28.4 °F 16.2 °F 21.2 °F 74% 29.87 in 9.0 mi NNW 17.3 mph 29.9 mph N/A   Overcast
3:55 AM 28.4 °F 16.6 °F 21.2 °F 74% 29.90 in 10.0 mi NW 16.1 mph 28.8 mph N/A   Overcast
4:15 AM 28.4 °F 14.7 °F 21.2 °F 74% 29.90 in 10.0 mi NNW 21.9 mph 28.8 mph N/A   Overcast
4:35 AM 26.6 °F 11.7 °F 21.2 °F 80% 29.90 in 7.0 mi NNW 24.2 mph 31.1 mph N/A Snow Light Snow
4:55 AM 26.6 °F 13.4 °F 21.2 °F 80% 29.93 in 8.0 mi NNW 18.4 mph 32.2 mph N/A Snow Light Snow
5:15 AM 26.6 °F 12.4 °F 21.2 °F 80% 29.92 in 7.0 mi NNW 21.9 mph 32.2 mph N/A Snow Light Snow
5:35 AM 26.6 °F 12.0 °F 21.2 °F 80% 29.92 in 10.0 mi NNW 23.0 mph 33.4 mph N/A Snow Light Snow
5:55 AM 26.6 °F 12.4 °F 19.4 °F 74% 29.93 in 10.0 mi NNW 21.9 mph 29.9 mph N/A   Overcast
6:15 AM 26.6 °F 11.7 °F 19.4 °F 74% 29.94 in 10.0 mi NW 24.2 mph 31.1 mph N/A   Overcast
6:35 AM 26.6 °F 12.4 °F 19.4 °F 74% 29.95 in 10.0 mi NNW 21.9 mph 28.8 mph N/A   Overcast
6:55 AM 26.6 °F 12.4 °F 19.4 °F 74% 29.97 in 10.0 mi NW 21.9 mph 29.9 mph N/A   Overcast
7:15 AM 26.6 °F 12.0 °F 19.4 °F 74% 29.98 in 10.0 mi NW 23.0 mph 34.5 mph N/A   Overcast
7:35 AM 26.6 °F 11.7 °F 19.4 °F 74% 29.99 in 10.0 mi NW 24.2 mph 32.2 mph N/A   Overcast
7:55 AM 26.6 °F 12.7 °F 19.4 °F 74% 30.00 in 10.0 mi NW 20.7 mph 31.1 mph N/A   Overcast
8:15 AM 26.6 °F 13.4 °F 19.4 °F 74% 30.02 in 10.0 mi NW 18.4 mph 29.9 mph N/A   Overcast
8:35 AM 26.6 °F 11.7 °F 17.6 °F 69% 30.01 in 10.0 mi NNW 24.2 mph 29.9 mph N/A   Overcast
8:55 AM 26.6 °F 11.7 °F 17.6 °F 69% 30.02 in 10.0 mi NW 24.2 mph 31.1 mph N/A   Overcast
9:15 AM 26.6 °F 13.1 °F 17.6 °F 69% 30.03 in 10.0 mi NNW 19.6 mph 28.8 mph N/A   Overcast
9:35 AM 26.6 °F 11.4 °F 17.6 °F 69% 30.04 in 10.0 mi NW 25.3 mph 31.1 mph N/A   Overcast
9:55 AM 26.6 °F 12.7 °F 17.6 °F 69% 30.05 in 10.0 mi NNW 20.7 mph 28.8 mph N/A   Overcast
10:15 AM 26.6 °F 13.4 °F 17.6 °F 69% 30.05 in 10.0 mi NNW 18.4 mph 29.9 mph N/A   Overcast
10:35 AM 26.6 °F 12.0 °F 17.6 °F 69% 30.06 in 10.0 mi NNW 23.0 mph 31.1 mph N/A   Overcast
10:55 AM 26.6 °F 13.1 °F 17.6 °F 69% 30.07 in 10.0 mi NW 19.6 mph 27.6 mph N/A   Overcast
11:15 AM 26.6 °F 12.0 °F 17.6 °F 69% 30.07 in 10.0 mi NW 23.0 mph 29.9 mph N/A   Overcast
11:35 AM 26.6 °F 11.7 °F 17.6 °F 69% 30.07 in 10.0 mi NNW 24.2 mph - N/A   Overcast
11:55 AM 28.4 °F 14.7 °F 19.4 °F 69% 30.08 in 10.0 mi NW 21.9 mph 32.2 mph N/A   Overcast
12:15 PM 28.4 °F 15.1 °F 19.4 °F 69% 30.09 in 10.0 mi NW 20.7 mph 27.6 mph N/A   Overcast
12:35 PM 28.4 °F 15.8 °F 19.4 °F 69% 30.10 in 10.0 mi NW 18.4 mph 28.8 mph N/A   Overcast
12:55 PM 28.4 °F 14.4 °F 19.4 °F 69% 30.10 in 10.0 mi NW 23.0 mph 28.8 mph N/A   Overcast
1:15 PM 28.4 °F 16.6 °F 19.4 °F 69% 30.11 in 10.0 mi NW 16.1 mph 24.2 mph N/A   Overcast
1:35 PM 28.4 °F 14.4 °F 19.4 °F 69% 30.12 in 10.0 mi NW 23.0 mph 31.1 mph N/A   Overcast
1:55 PM 28.4 °F 14.4 °F 19.4 °F 69% 30.13 in 10.0 mi NW 23.0 mph - N/A   Overcast
2:15 PM 28.4 °F 15.4 °F 19.4 °F 69% 30.14 in 10.0 mi NNW 19.6 mph 26.5 mph N/A   Overcast
2:35 PM 28.4 °F 14.4 °F 19.4 °F 69% 30.15 in 10.0 mi NW 23.0 mph - N/A   Overcast
2:55 PM 28.4 °F 14.7 °F 19.4 °F 69% 30.16 in 10.0 mi NW 21.9 mph 27.6 mph N/A   Overcast
3:15 PM 28.4 °F 15.4 °F 19.4 °F 69% 30.17 in 10.0 mi NW 19.6 mph 28.8 mph N/A   Overcast
3:35 PM 28.4 °F 15.1 °F 19.4 °F 69% 30.18 in 10.0 mi NNW 20.7 mph 28.8 mph N/A   Overcast
3:55 PM 28.4 °F 15.1 °F 19.4 °F 69% 30.18 in 10.0 mi NNW 20.7 mph 28.8 mph N/A   Overcast
4:15 PM 28.4 °F 15.4 °F 19.4 °F 69% 30.18 in 10.0 mi NW 19.6 mph 26.5 mph N/A   Overcast
4:35 PM 28.4 °F 16.2 °F 19.4 °F 69% 30.19 in 10.0 mi NW 17.3 mph 25.3 mph N/A   Overcast
4:55 PM 28.4 °F 16.6 °F 17.6 °F 64% 30.21 in 10.0 mi NNW 16.1 mph 25.3 mph N/A   Overcast
5:15 PM 28.4 °F 15.4 °F 17.6 °F 64% 30.21 in 10.0 mi NNW 19.6 mph - N/A   Overcast
5:35 PM 28.4 °F 15.1 °F 17.6 °F 64% 30.22 in 10.0 mi NW 20.7 mph 27.6 mph N/A   Overcast
5:55 PM 28.4 °F 15.8 °F 17.6 °F 64% 30.23 in 10.0 mi NNW 18.4 mph 25.3 mph N/A   Overcast
6:15 PM 26.6 °F 14.7 °F 15.8 °F 64% 30.24 in 10.0 mi NNW 15.0 mph 26.5 mph N/A   Overcast
6:35 PM 26.6 °F 14.3 °F 15.8 °F 64% 30.25 in 10.0 mi NNW 16.1 mph 21.9 mph N/A   Overcast
6:55 PM 26.6 °F 14.3 °F 15.8 °F 64% 30.26 in 10.0 mi NW 16.1 mph 25.3 mph N/A   Overcast
7:15 PM 26.6 °F 12.4 °F 14.0 °F 59% 30.26 in 10.0 mi NNW 21.9 mph - N/A   Overcast
7:35 PM 26.6 °F 13.4 °F 12.2 °F 55% 30.27 in 10.0 mi NNW 18.4 mph 26.5 mph N/A   Overcast
7:55 PM 26.6 °F 13.8 °F 12.2 °F 55% 30.28 in 10.0 mi NNW 17.3 mph 24.2 mph N/A   Overcast
8:15 PM 26.6 °F 13.1 °F 12.2 °F 55% 30.28 in 10.0 mi NNW 19.6 mph 25.3 mph N/A   Overcast
8:35 PM 24.8 °F 10.7 °F 14.0 °F 64% 30.28 in 10.0 mi NNW 19.6 mph - N/A   Overcast
8:55 PM 24.8 °F 10.7 °F 12.2 °F 59% 30.28 in 10.0 mi NNW 19.6 mph 26.5 mph N/A   Overcast
9:15 PM 24.8 °F 10.7 °F 10.4 °F 54% 30.28 in 10.0 mi NNW 19.6 mph 25.3 mph N/A   Overcast
9:35 PM 24.8 °F 10.7 °F 10.4 °F 54% 30.29 in 10.0 mi NNW 19.6 mph 25.3 mph N/A   Overcast
9:55 PM 24.8 °F 11.5 °F 10.4 °F 54% 30.30 in 10.0 mi NNW 17.3 mph 24.2 mph N/A   Overcast
10:15 PM 24.8 °F 12.4 °F 10.4 °F 54% 30.31 in 10.0 mi NNW 15.0 mph 24.2 mph N/A   Overcast
10:35 PM 23.0 °F 11.1 °F 12.2 °F 63% 30.32 in 10.0 mi NW 12.7 mph 21.9 mph N/A   Overcast
10:55 PM 23.0 °F 11.1 °F 14.0 °F 68% 30.32 in 8.0 mi NW 12.7 mph 20.7 mph N/A Snow Light Snow
11:15 PM 23.0 °F 9.6 °F 14.0 °F 68% 30.32 in 10.0 mi NNW 16.1 mph - N/A   Overcast
11:35 PM 23.0 °F 10.6 °F 10.4 °F 59% 30.33 in 10.0 mi NNW 13.8 mph 21.9 mph N/A   Overcast
11:55 PM 23.0 °F 10.1 °F 10.4 °F 59% 30.33 in 10.0 mi NW 15.0 mph 21.9 mph N/A   Overcast